Time;durP1;ratioP1;P1;durP2;ratioP2;P2;SDS_P1;SDS_P2;PMS_P1;PMS_P2;Temp;Humidity;BMP_temperature;BMP_pressure;BME280_temperature;BME280_humidity;BME280_pressure;Samples;Min_cycle;Max_cycle;Signal;HPM_P1;HPM_P2
2023/03/02 00:07:50;;;;;;;33.35;15.48;;;;;;;0.55;100.00;100588.50;20569579;28;20133;-72
2023/03/02 00:17:51;;;;;;;38.05;15.98;;;;;;;0.46;100.00;100589.13;20567528;28;20097;-72
2023/03/02 00:27:53;;;;;;;33.85;15.70;;;;;;;0.50;100.00;100588.38;20568404;28;20054;-71
2023/03/02 00:37:54;;;;;;;37.10;15.77;;;;;;;0.39;100.00;100595.81;20566627;28;20043;-70
2023/03/02 00:47:55;;;;;;;31.08;16.05;;;;;;;0.30;100.00;100590.41;20566782;28;20070;-70
2023/03/02 00:57:56;;;;;;;38.55;16.20;;;;;;;0.18;100.00;100579.72;20566627;28;20047;-71
2023/03/02 01:07:58;;;;;;;31.67;16.33;;;;;;;-0.02;100.00;100571.44;20565068;28;20623;-71
2023/03/02 01:17:59;;;;;;;36.80;16.60;;;;;;;-0.06;100.00;100559.28;20563625;28;20108;-72
2023/03/02 01:28:00;;;;;;;31.42;15.55;;;;;;;-0.15;100.00;100543.59;20565615;28;20098;-73
2023/03/02 01:38:01;;;;;;;35.22;16.67;;;;;;;-0.21;100.00;100527.97;20563835;28;20074;-72
2023/03/02 01:48:03;;;;;;;38.33;16.02;;;;;;;-0.29;100.00;100525.16;20564616;28;20526;-73
2023/03/02 01:58:04;;;;;;;34.13;16.60;;;;;;;-0.43;100.00;100527.34;20578452;28;20718;-72
2023/03/02 02:08:05;;;;;;;34.45;16.42;;;;;;;-0.51;100.00;100513.38;20576954;28;20054;-72
2023/03/02 02:18:07;;;;;;;38.03;17.00;;;;;;;-0.56;100.00;100510.66;20578055;28;20039;-71
2023/03/02 02:28:08;;;;;;;39.10;17.20;;;;;;;-0.58;100.00;100498.56;20577211;28;20082;-71
2023/03/02 02:38:09;;;;;;;38.70;17.42;;;;;;;-0.63;100.00;100497.53;20575758;28;20847;-72
2023/03/02 02:48:10;;;;;;;37.67;17.35;;;;;;;-0.59;100.00;100481.38;20571814;28;20145;-72
2023/03/02 02:58:12;;;;;;;36.90;16.30;;;;;;;-0.61;100.00;100488.19;20572718;28;20570;-71
2023/03/02 03:08:13;;;;;;;35.88;16.70;;;;;;;-0.58;100.00;100489.13;20572040;28;20050;-71
2023/03/02 03:18:14;;;;;;;38.78;16.83;;;;;;;-0.68;100.00;100483.69;20569999;28;20046;-71
2023/03/02 03:28:16;;;;;;;38.25;17.05;;;;;;;-0.72;100.00;100492.13;20570163;28;20062;-71
2023/03/02 03:38:18;;;;;;;39.95;17.33;;;;;;;-0.89;100.00;100492.47;20570680;28;20480;-72
2023/03/02 03:48:19;;;;;;;36.15;17.23;;;;;;;-0.91;100.00;100504.41;20570198;28;20129;-72
2023/03/02 03:58:20;;;;;;;36.85;17.63;;;;;;;-1.04;100.00;100495.44;20569363;28;20050;-71
2023/03/02 04:08:22;;;;;;;36.33;15.85;;;;;;;-1.04;100.00;100499.69;20568002;28;20545;-71
2023/03/02 04:18:23;;;;;;;38.40;17.73;;;;;;;-1.09;100.00;100499.53;20567460;28;20047;-71
2023/03/02 04:28:24;;;;;;;42.30;17.75;;;;;;;-1.06;100.00;100506.47;20570907;28;20050;-71
2023/03/02 04:38:28;;;;;;;40.17;18.75;;;;;;;-1.12;100.00;100501.13;20575629;28;20059;-72
2023/03/02 04:48:29;;;;;;;;;;;;;;;-1.14;100.00;100492.50;20567333;28;20070;-72
2023/03/02 04:58:31;;;;;;;38.25;16.95;;;;;;;-1.17;100.00;100492.41;20565793;28;19926;-73
2023/03/02 05:08:32;;;;;;;38.35;16.58;;;;;;;-1.25;100.00;100488.69;20564923;28;20054;-72
2023/03/02 05:18:33;;;;;;;37.28;16.27;;;;;;;-1.31;100.00;100500.50;20564553;28;20053;-71
2023/03/02 05:28:35;;;;;;;37.80;16.88;;;;;;;-1.35;100.00;100497.78;20574227;28;20436;-73
2023/03/02 05:38:36;;;;;;;32.63;15.90;;;;;;;-1.36;100.00;100488.34;20579616;28;20082;-72
2023/03/02 05:48:37;;;;;;;39.22;16.63;;;;;;;-1.36;100.00;100496.91;20580014;28;20051;-73
2023/03/02 05:58:38;;;;;;;39.40;17.38;;;;;;;-1.33;100.00;100502.16;20577758;28;20061;-74
2023/03/02 06:08:40;;;;;;;37.35;15.68;;;;;;;-1.40;100.00;100505.34;20577379;28;20054;-74
2023/03/02 06:18:41;;;;;;;43.53;17.08;;;;;;;-1.38;100.00;100514.00;20576139;28;20102;-73
2023/03/02 06:28:42;;;;;;;36.67;17.00;;;;;;;-1.35;100.00;100524.34;20575479;28;20134;-73
2023/03/02 06:38:52;;;;;;;36.25;17.10;;;;;;;-1.25;100.00;100529.78;20573389;28;20043;-73
2023/03/02 06:48:53;;;;;;;37.40;16.90;;;;;;;-1.26;100.00;100539.19;20575133;28;20051;-74
2023/03/02 06:58:55;;;;;;;34.17;16.67;;;;;;;-1.14;100.00;100543.91;20573964;28;20076;-74
2023/03/02 07:08:56;;;;;;;39.55;17.38;;;;;;;-0.96;100.00;100552.19;20573323;28;20058;-74
2023/03/02 07:18:57;;;;;;;39.35;17.52;;;;;;;-0.71;100.00;100550.44;20572328;28;20050;-72
2023/03/02 07:28:58;;;;;;;41.78;18.35;;;;;;;-0.56;100.00;100556.06;20529749;28;20074;-71
2023/03/02 07:38:59;;;;;;;36.15;16.15;;;;;;;-0.31;100.00;100553.41;20544052;28;20078;-71
2023/03/02 07:49:01;;;;;;;41.78;16.58;;;;;;;-0.08;100.00;100572.13;20548873;28;20089;-72
2023/03/02 07:59:02;;;;;;;35.90;16.73;;;;;;;0.23;100.00;100579.03;20569473;28;20391;-72
2023/03/02 08:09:03;;;;;;;37.45;17.25;;;;;;;0.57;100.00;100573.97;20547215;28;20058;-72
2023/03/02 08:19:05;;;;;;;34.10;16.55;;;;;;;0.74;100.00;100578.75;20552155;28;20047;-72
2023/03/02 08:29:06;;;;;;;41.80;18.60;;;;;;;1.03;100.00;100571.78;20543588;28;20051;-72
2023/03/02 08:39:07;;;;;;;44.28;19.48;;;;;;;1.41;100.00;100586.47;20545594;28;20086;-72
2023/03/02 08:49:09;;;;;;;37.35;17.08;;;;;;;1.76;100.00;100564.91;20538554;28;20109;-72
2023/03/02 08:59:10;;;;;;;39.88;17.85;;;;;;;2.17;100.00;100570.13;20554300;28;20062;-72
2023/03/02 09:09:11;;;;;;;38.92;18.10;;;;;;;2.57;100.00;100565.72;20568530;28;20078;-72
2023/03/02 09:19:12;;;;;;;41.03;18.83;;;;;;;2.98;100.00;100556.16;20566147;28;20447;-72
2023/03/02 09:29:13;;;;;;;43.08;19.88;;;;;;;3.33;100.00;100561.06;20562953;28;20069;-72
2023/03/02 09:39:15;;;;;;;41.63;20.25;;;;;;;3.81;94.67;100560.91;20562865;28;20051;-72
2023/03/02 09:49:16;;;;;;;41.92;19.92;;;;;;;3.90;93.72;100564.50;20563518;28;20046;-72
2023/03/02 09:59:17;;;;;;;41.28;19.52;;;;;;;4.05;93.55;100569.88;20563009;28;20046;-71
2023/03/02 10:09:19;;;;;;;39.38;18.65;;;;;;;4.41;91.39;100551.34;20562110;28;20051;-71
2023/03/02 10:19:20;;;;;;;39.88;19.30;;;;;;;4.69;89.87;100552.50;20576603;28;20078;-71
2023/03/02 10:29:21;;;;;;;43.05;20.25;;;;;;;4.93;89.04;100538.91;20576061;28;20093;-71
2023/03/02 10:39:22;;;;;;;39.78;19.27;;;;;;;5.06;87.00;100534.69;20575898;28;20047;-72
2023/03/02 10:49:24;;;;;;;38.67;19.40;;;;;;;5.50;85.88;100531.59;20575227;28;20147;-72
2023/03/02 10:59:25;;;;;;;35.58;18.70;;;;;;;5.79;82.40;100530.03;20573583;28;20053;-73
2023/03/02 11:09:27;;;;;;;38.40;20.20;;;;;;;5.85;85.96;100519.69;20573934;28;20051;-73
2023/03/02 11:19:28;;;;;;;35.05;18.92;;;;;;;6.14;79.40;100511.19;20575923;28;20375;-72
2023/03/02 11:29:29;;;;;;;38.05;18.38;;;;;;;6.33;81.12;100501.75;20572326;28;20144;-72
2023/03/02 11:39:31;;;;;;;41.70;21.80;;;;;;;6.54;78.71;100496.59;20540010;28;20054;-72
2023/03/02 11:49:32;;;;;;;39.30;18.83;;;;;;;6.68;78.03;100486.19;20571533;28;20054;-72
2023/03/02 11:59:34;;;;;;;34.70;18.88;;;;;;;6.70;79.44;100481.84;20545810;28;20054;-76
2023/03/02 12:09:35;;;;;;;37.72;18.23;;;;;;;6.84;77.11;100474.06;20566662;28;20053;-74
2023/03/02 12:19:36;;;;;;;34.20;17.80;;;;;;;7.22;77.11;100471.47;20565675;28;20086;-74
2023/03/02 12:29:39;;;;;;;32.85;17.88;;;;;;;7.25;77.26;100461.06;20565097;28;20054;-75
2023/03/02 12:39:40;;;;;;;35.63;18.67;;;;;;;7.27;77.02;100454.09;20559153;28;20178;-75
2023/03/02 12:49:41;;;;;;;38.95;18.35;;;;;;;7.49;76.04;100434.09;20562894;28;20054;-75
2023/03/02 12:59:43;;;;;;;33.40;18.17;;;;;;;7.56;73.94;100429.72;20561407;28;20053;-76
2023/03/02 13:09:44;;;;;;;32.55;17.02;;;;;;;7.63;75.22;100426.22;20560311;28;20055;-75
2023/03/02 13:19:57;;;;;;;30.52;16.27;;;;;;;7.77;74.01;100405.34;20561166;28;20057;-71
2023/03/02 13:29:58;;;;;;;29.60;16.10;;;;;;;8.00;74.66;100416.53;20525594;28;1040490;-72
2023/03/02 13:39:59;;;;;;;31.80;17.45;;;;;;;8.52;71.16;100405.78;20564571;28;20526;-75
2023/03/02 13:50:01;;;;;;;30.40;16.58;;;;;;;8.52;69.66;100405.78;20594779;28;20469;-79
2023/03/02 14:00:02;;;;;;;33.42;17.05;;;;;;;8.67;70.13;100403.09;20585375;28;20623;-76
2023/03/02 14:10:03;;;;;;;33.55;16.10;;;;;;;8.44;71.60;100400.63;20579597;28;20450;-77
2023/03/02 14:20:05;;;;;;;31.60;16.13;;;;;;;8.28;72.12;100393.75;20577237;28;20082;-77
2023/03/02 14:30:06;;;;;;;30.10;16.60;;;;;;;8.60;69.13;100382.25;20572573;28;20530;-77
2023/03/02 14:40:07;;;;;;;32.20;16.38;;;;;;;8.56;70.22;100376.19;20577121;28;20054;-75
2023/03/02 14:50:08;;;;;;;36.35;18.33;;;;;;;8.58;71.01;100373.59;20574941;28;20047;-75
2023/03/02 15:00:10;;;;;;;34.13;18.50;;;;;;;8.69;70.89;100375.22;20573762;28;20632;-74
2023/03/02 15:10:11;;;;;;;33.38;17.40;;;;;;;8.53;72.28;100380.56;20552947;23;20090;-72
2023/03/02 15:20:12;;;;;;;30.40;17.55;;;;;;;8.38;72.68;100373.72;20490699;28;20066;-71
2023/03/02 15:30:14;;;;;;;31.38;16.63;;;;;;;8.46;72.00;100375.38;20484893;28;20043;-71
2023/03/02 15:40:15;;;;;;;34.95;18.15;;;;;;;8.41;70.77;100387.59;20487216;28;20140;-71
2023/03/02 15:50:16;;;;;;;34.90;17.63;;;;;;;8.24;72.94;100384.22;20486390;28;20507;-71
2023/03/02 16:00:17;;;;;;;32.03;17.90;;;;;;;8.12;75.22;100389.50;20485656;28;20058;-71
2023/03/02 16:10:19;;;;;;;35.55;19.67;;;;;;;8.05;74.76;100393.00;20485277;28;20051;-71
2023/03/02 16:20:21;;;;;;;36.75;19.25;;;;;;;7.89;75.84;100397.44;20485308;28;20047;-71
2023/03/02 16:30:22;;;;;;;39.40;18.80;;;;;;;7.73;76.08;100404.47;20483825;28;20154;-71
2023/03/02 16:40:24;;;;;;;32.85;18.45;;;;;;;7.52;77.52;100408.03;20483924;28;20054;-71
2023/03/02 16:50:25;;;;;;;37.10;19.30;;;;;;;7.49;77.90;100426.28;20483347;28;20412;-71
2023/03/02 17:00:26;;;;;;;37.17;19.33;;;;;;;7.35;78.45;100431.50;20478912;28;20090;-71
2023/03/02 17:10:27;;;;;;;39.08;20.10;;;;;;;6.95;81.48;100443.72;20473358;28;20054;-69
2023/03/02 17:20:29;;;;;;;40.47;19.95;;;;;;;6.77;82.60;100462.78;20479253;28;20118;-68
2023/03/02 17:30:30;;;;;;;38.88;20.00;;;;;;;6.32;86.42;100464.44;20478268;28;20058;-69
2023/03/02 17:40:31;;;;;;;37.20;20.67;;;;;;;5.98;89.32;100467.78;20472426;28;20043;-68
2023/03/02 17:50:33;;;;;;;42.10;21.05;;;;;;;5.72;91.61;100486.72;20478672;28;20051;-69
2023/03/02 18:00:34;;;;;;;44.55;23.20;;;;;;;5.53;94.09;100503.03;20474814;28;20072;-68
2023/03/02 18:10:35;;;;;;;39.33;21.20;;;;;;;5.28;96.53;100507.22;20468797;28;20047;-68
2023/03/02 18:20:37;;;;;;;48.92;22.88;;;;;;;5.05;99.96;100527.78;20477052;28;20055;-68
2023/03/02 18:30:38;;;;;;;42.63;22.65;;;;;;;4.82;100.00;100536.22;20477275;28;20117;-68
2023/03/02 18:40:39;;;;;;;47.08;22.55;;;;;;;4.63;100.00;100544.66;20481892;28;20128;-68
2023/03/02 18:50:41;;;;;;;43.08;22.13;;;;;;;4.41;100.00;100542.66;20486704;28;20055;-68
2023/03/02 19:00:42;;;;;;;45.80;22.92;;;;;;;4.26;100.00;100552.00;20488909;28;20061;-68
2023/03/02 19:10:44;;;;;;;52.70;24.77;;;;;;;4.09;100.00;100559.59;20370755;28;20055;-68
2023/03/02 19:20:45;;;;;;;46.75;22.60;;;;;;;3.98;100.00;100568.94;20487226;28;20082;-68
2023/03/02 19:30:46;;;;;;;46.30;23.08;;;;;;;3.89;100.00;100574.00;20485546;28;20109;-68
2023/03/02 19:40:47;;;;;;;55.85;24.75;;;;;;;3.88;100.00;100573.94;20486427;28;20478;-68
2023/03/02 19:50:50;;;;;;;53.08;23.88;;;;;;;3.74;100.00;100569.47;20483994;28;20055;-68
2023/03/02 20:00:51;;;;;;;51.15;26.20;;;;;;;3.72;100.00;100570.28;20484665;28;20039;-69
2023/03/02 20:10:52;;;;;;;50.38;24.15;;;;;;;3.57;100.00;100576.09;20483917;28;20396;-69
2023/03/02 20:20:54;;;;;;;54.58;25.08;;;;;;;3.54;100.00;100596.75;20480581;28;20051;-69
2023/03/02 20:30:55;;;;;;;57.15;26.75;;;;;;;3.38;100.00;100594.78;20481918;28;20074;-69
2023/03/02 20:40:56;;;;;;;59.00;26.30;;;;;;;3.28;100.00;100602.38;20482297;28;20051;-69
2023/03/02 20:50:58;;;;;;;65.47;27.83;;;;;;;3.19;100.00;100601.34;20481643;28;20482;-69
2023/03/02 21:00:59;;;;;;;60.47;28.35;;;;;;;3.06;100.00;100611.47;20480031;28;20511;-69
2023/03/02 21:11:01;;;;;;;56.58;27.15;;;;;;;2.95;100.00;100614.72;20473696;28;20062;-70
2023/03/02 21:21:02;;;;;;;60.97;28.42;;;;;;;2.82;100.00;100606.72;20478992;28;20047;-70
2023/03/02 21:31:03;;;;;;;62.22;29.10;;;;;;;2.76;100.00;100614.38;20478834;28;20448;-70
2023/03/02 21:41:04;;;;;;;65.20;30.27;;;;;;;2.56;100.00;100601.06;20478376;28;20138;-70
2023/03/02 21:51:06;;;;;;;60.75;27.98;;;;;;;2.43;100.00;100603.34;20478817;28;20126;-70
2023/03/02 22:01:07;;;;;;;58.03;26.25;;;;;;;2.34;100.00;100608.34;20476113;28;20055;-69
2023/03/02 22:11:08;;;;;;;59.83;27.98;;;;;;;2.21;100.00;100610.66;20479587;28;20059;-69
2023/03/02 22:21:10;;;;;;;66.05;30.60;;;;;;;2.11;100.00;100606.16;20493830;28;20059;-70
2023/03/02 22:31:11;;;;;;;64.50;28.63;;;;;;;1.99;100.00;100611.03;20492321;28;20110;-70
2023/03/02 22:41:12;;;;;;;66.78;29.80;;;;;;;1.89;100.00;100601.34;20490474;28;20051;-70
2023/03/02 22:51:14;;;;;;;63.85;28.48;;;;;;;1.78;100.00;100620.03;20490608;28;20473;-70
2023/03/02 23:01:15;;;;;;;65.13;29.02;;;;;;;1.70;100.00;100613.81;20488928;28;20047;-70
2023/03/02 23:11:16;;;;;;;62.72;29.40;;;;;;;1.57;100.00;100618.66;20492387;28;20047;-71
2023/03/02 23:21:18;;;;;;;71.80;32.50;;;;;;;1.48;100.00;100627.91;20491422;28;20051;-71
2023/03/02 23:31:20;;;;;;;64.90;28.58;;;;;;;1.26;100.00;100626.50;20490165;28;20110;-71
2023/03/02 23:41:21;;;;;;;69.68;29.40;;;;;;;1.02;100.00;100636.19;20490396;28;20086;-70
2023/03/02 23:51:24;;;;;;;62.25;26.75;;;;;;;0.88;100.00;100622.06;20489148;28;20460;-70
